sensor_id;sensor_type;location;lat;lon;timestamp;temperature;humidity
24338;DHT22;12457;50.832;4.346;2022-07-21T00:00:05;19.10;99.90
24338;DHT22;12457;50.832;4.346;2022-07-21T00:02:33;19.10;99.90
24338;DHT22;12457;50.832;4.346;2022-07-21T00:04:58;19.10;99.90
24338;DHT22;12457;50.832;4.346;2022-07-21T00:07:24;19.20;99.90
24338;DHT22;12457;50.832;4.346;2022-07-21T00:09:50;19.10;99.90
24338;DHT22;12457;50.832;4.346;2022-07-21T00:12:15;19.20;99.90
24338;DHT22;12457;50.832;4.346;2022-07-21T00:14:41;19.20;99.90
24338;DHT22;12457;50.832;4.346;2022-07-21T00:17:07;19.20;99.90
24338;DHT22;12457;50.832;4.346;2022-07-21T00:19:34;19.20;99.90
24338;DHT22;12457;50.832;4.346;2022-07-21T00:22:03;19.10;99.90
24338;DHT22;12457;50.832;4.346;2022-07-21T00:24:28;19.20;99.90
24338;DHT22;12457;50.832;4.346;2022-07-21T00:26:54;19.20;99.90
24338;DHT22;12457;50.832;4.346;2022-07-21T00:29:20;19.20;99.90
24338;DHT22;12457;50.832;4.346;2022-07-21T00:31:45;19.20;99.90
24338;DHT22;12457;50.832;4.346;2022-07-21T00:34:11;19.20;99.90
24338;DHT22;12457;50.832;4.346;2022-07-21T00:36:37;19.20;99.90
24338;DHT22;12457;50.832;4.346;2022-07-21T00:39:05;19.10;99.90
24338;DHT22;12457;50.832;4.346;2022-07-21T00:41:31;19.00;99.90
24338;DHT22;12457;50.832;4.346;2022-07-21T00:43:58;19.10;99.90
24338;DHT22;12457;50.832;4.346;2022-07-21T00:46:24;19.00;99.90
24338;DHT22;12457;50.832;4.346;2022-07-21T00:48:51;19.00;99.90
24338;DHT22;12457;50.832;4.346;2022-07-21T00:51:16;19.00;99.90
24338;DHT22;12457;50.832;4.346;2022-07-21T00:53:42;19.00;99.90
24338;DHT22;12457;50.832;4.346;2022-07-21T00:56:09;19.00;99.90
24338;DHT22;12457;50.832;4.346;2022-07-21T00:58:35;19.00;99.90
24338;DHT22;12457;50.832;4.346;2022-07-21T01:01:01;19.10;99.90
24338;DHT22;12457;50.832;4.346;2022-07-21T01:03:30;19.10;99.90
24338;DHT22;12457;50.832;4.346;2022-07-21T01:05:59;19.00;99.90
24338;DHT22;12457;50.832;4.346;2022-07-21T01:08:26;19.00;99.90
24338;DHT22;12457;50.832;4.346;2022-07-21T01:10:53;19.00;99.90
24338;DHT22;12457;50.832;4.346;2022-07-21T01:13:19;19.10;99.90
24338;DHT22;12457;50.832;4.346;2022-07-21T01:15:45;19.00;99.90
24338;DHT22;12457;50.832;4.346;2022-07-21T01:18:11;19.00;99.90
24338;DHT22;12457;50.832;4.346;2022-07-21T01:20:38;19.00;99.90
24338;DHT22;12457;50.832;4.346;2022-07-21T01:23:06;18.90;99.90
24338;DHT22;12457;50.832;4.346;2022-07-21T01:25:32;18.90;99.90
24338;DHT22;12457;50.832;4.346;2022-07-21T01:27:58;18.90;99.90
24338;DHT22;12457;50.832;4.346;2022-07-21T01:30:24;18.80;99.90
24338;DHT22;12457;50.832;4.346;2022-07-21T01:32:50;18.80;99.90
24338;DHT22;12457;50.832;4.346;2022-07-21T01:35:16;18.90;99.90
24338;DHT22;12457;50.832;4.346;2022-07-21T01:37:46;18.80;99.90
24338;DHT22;12457;50.832;4.346;2022-07-21T01:40:14;18.90;99.90
24338;DHT22;12457;50.832;4.346;2022-07-21T01:42:59;18.80;99.90
24338;DHT22;12457;50.832;4.346;2022-07-21T01:45:25;18.80;99.90
24338;DHT22;12457;50.832;4.346;2022-07-21T01:47:50;18.70;99.90
24338;DHT22;12457;50.832;4.346;2022-07-21T01:50:16;18.80;99.90
24338;DHT22;12457;50.832;4.346;2022-07-21T01:52:46;18.80;99.90
24338;DHT22;12457;50.832;4.346;2022-07-21T01:55:12;18.80;99.90
24338;DHT22;12457;50.832;4.346;2022-07-21T01:57:38;18.80;99.90
24338;DHT22;12457;50.832;4.346;2022-07-21T02:00:04;18.80;99.90
24338;DHT22;12457;50.832;4.346;2022-07-21T02:02:30;18.80;99.90
24338;DHT22;12457;50.832;4.346;2022-07-21T02:04:59;18.80;99.90
24338;DHT22;12457;50.832;4.346;2022-07-21T02:07:25;18.80;99.90
24338;DHT22;12457;50.832;4.346;2022-07-21T02:09:50;18.80;99.90
24338;DHT22;12457;50.832;4.346;2022-07-21T02:12:16;18.90;99.90
24338;DHT22;12457;50.832;4.346;2022-07-21T02:14:42;19.00;99.90
24338;DHT22;12457;50.832;4.346;2022-07-21T02:17:08;18.90;99.90
24338;DHT22;12457;50.832;4.346;2022-07-21T02:19:34;18.90;99.90
24338;DHT22;12457;50.832;4.346;2022-07-21T02:21:59;18.80;99.90
24338;DHT22;12457;50.832;4.346;2022-07-21T02:24:25;18.90;99.90
24338;DHT22;12457;50.832;4.346;2022-07-21T02:26:51;18.90;99.90
24338;DHT22;12457;50.832;4.346;2022-07-21T02:29:16;18.90;99.90
24338;DHT22;12457;50.832;4.346;2022-07-21T02:31:42;18.90;99.90
24338;DHT22;12457;50.832;4.346;2022-07-21T02:34:08;18.90;99.90
24338;DHT22;12457;50.832;4.346;2022-07-21T02:36:35;19.00;99.90
24338;DHT22;12457;50.832;4.346;2022-07-21T02:39:01;19.00;99.90
24338;DHT22;12457;50.832;4.346;2022-07-21T02:41:26;19.00;99.90
24338;DHT22;12457;50.832;4.346;2022-07-21T02:43:52;19.00;99.90
24338;DHT22;12457;50.832;4.346;2022-07-21T02:46:18;18.90;99.90
24338;DHT22;12457;50.832;4.346;2022-07-21T02:48:43;18.90;99.90
24338;DHT22;12457;50.832;4.346;2022-07-21T02:51:10;18.90;99.90
24338;DHT22;12457;50.832;4.346;2022-07-21T02:53:35;18.90;99.90
24338;DHT22;12457;50.832;4.346;2022-07-21T02:56:01;18.90;99.90
24338;DHT22;12457;50.832;4.346;2022-07-21T02:58:28;18.90;99.90
24338;DHT22;12457;50.832;4.346;2022-07-21T03:01:01;18.90;99.90
24338;DHT22;12457;50.832;4.346;2022-07-21T03:03:30;18.80;99.90
24338;DHT22;12457;50.832;4.346;2022-07-21T03:05:56;18.80;99.90
24338;DHT22;12457;50.832;4.346;2022-07-21T03:08:23;18.90;99.90
24338;DHT22;12457;50.832;4.346;2022-07-21T03:10:49;18.80;99.90
24338;DHT22;12457;50.832;4.346;2022-07-21T03:13:16;18.80;99.90
24338;DHT22;12457;50.832;4.346;2022-07-21T03:15:42;18.70;99.90
24338;DHT22;12457;50.832;4.346;2022-07-21T03:18:08;18.70;99.90
24338;DHT22;12457;50.832;4.346;2022-07-21T03:20:36;18.70;99.90
24338;DHT22;12457;50.832;4.346;2022-07-21T03:23:04;18.60;99.90
24338;DHT22;12457;50.832;4.346;2022-07-21T03:25:31;18.60;99.90
24338;DHT22;12457;50.832;4.346;2022-07-21T03:27:57;18.60;99.90
24338;DHT22;12457;50.832;4.346;2022-07-21T03:30:23;18.70;99.90
24338;DHT22;12457;50.832;4.346;2022-07-21T03:32:50;18.80;99.90
24338;DHT22;12457;50.832;4.346;2022-07-21T03:35:16;18.80;99.90
24338;DHT22;12457;50.832;4.346;2022-07-21T03:37:50;18.90;99.90
24338;DHT22;12457;50.832;4.346;2022-07-21T03:40:18;18.90;99.90
24338;DHT22;12457;50.832;4.346;2022-07-21T03:42:45;18.90;99.90
24338;DHT22;12457;50.832;4.346;2022-07-21T03:45:11;18.90;99.90
24338;DHT22;12457;50.832;4.346;2022-07-21T03:47:37;19.00;99.90
24338;DHT22;12457;50.832;4.346;2022-07-21T03:50:04;19.00;99.90
24338;DHT22;12457;50.832;4.346;2022-07-21T03:52:30;19.00;99.90
24338;DHT22;12457;50.832;4.346;2022-07-21T03:54:55;18.90;99.90
24338;DHT22;12457;50.832;4.346;2022-07-21T03:57:42;19.00;99.90
24338;DHT22;12457;50.832;4.346;2022-07-21T04:00:14;18.90;99.90
24338;DHT22;12457;50.832;4.346;2022-07-21T04:02:40;18.90;99.90
24338;DHT22;12457;50.832;4.346;2022-07-21T04:05:08;18.80;99.90
24338;DHT22;12457;50.832;4.346;2022-07-21T04:07:35;18.80;99.90
24338;DHT22;12457;50.832;4.346;2022-07-21T04:10:02;18.80;99.90
24338;DHT22;12457;50.832;4.346;2022-07-21T04:12:28;18.90;99.90
24338;DHT22;12457;50.832;4.346;2022-07-21T04:14:56;18.80;99.90
24338;DHT22;12457;50.832;4.346;2022-07-21T04:17:22;18.90;99.90
24338;DHT22;12457;50.832;4.346;2022-07-21T04:19:48;18.90;99.90
24338;DHT22;12457;50.832;4.346;2022-07-21T04:22:14;19.00;99.90
24338;DHT22;12457;50.832;4.346;2022-07-21T04:24:40;19.00;99.90
24338;DHT22;12457;50.832;4.346;2022-07-21T04:27:06;19.00;99.90
24338;DHT22;12457;50.832;4.346;2022-07-21T04:29:32;19.10;99.90
24338;DHT22;12457;50.832;4.346;2022-07-21T04:31:58;19.00;99.90
24338;DHT22;12457;50.832;4.346;2022-07-21T04:34:24;19.00;99.90
24338;DHT22;12457;50.832;4.346;2022-07-21T04:36:50;19.10;99.90
24338;DHT22;12457;50.832;4.346;2022-07-21T04:39:19;19.10;99.90
24338;DHT22;12457;50.832;4.346;2022-07-21T04:41:44;19.10;99.90
24338;DHT22;12457;50.832;4.346;2022-07-21T04:44:10;19.10;99.90
24338;DHT22;12457;50.832;4.346;2022-07-21T04:46:35;19.00;99.90
24338;DHT22;12457;50.832;4.346;2022-07-21T04:49:01;19.10;99.90
24338;DHT22;12457;50.832;4.346;2022-07-21T04:51:27;19.20;99.90
24338;DHT22;12457;50.832;4.346;2022-07-21T04:53:52;19.20;99.90
24338;DHT22;12457;50.832;4.346;2022-07-21T04:56:18;19.20;99.90
24338;DHT22;12457;50.832;4.346;2022-07-21T04:58:44;19.20;99.90
24338;DHT22;12457;50.832;4.346;2022-07-21T05:01:10;19.10;99.90
24338;DHT22;12457;50.832;4.346;2022-07-21T05:03:36;19.10;99.90
24338;DHT22;12457;50.832;4.346;2022-07-21T05:06:01;19.20;99.90
24338;DHT22;12457;50.832;4.346;2022-07-21T05:08:27;19.20;99.90
24338;DHT22;12457;50.832;4.346;2022-07-21T05:10:54;19.20;99.90
24338;DHT22;12457;50.832;4.346;2022-07-21T05:13:20;19.20;99.90
24338;DHT22;12457;50.832;4.346;2022-07-21T05:15:47;19.00;99.90
24338;DHT22;12457;50.832;4.346;2022-07-21T05:18:14;18.90;99.90
24338;DHT22;12457;50.832;4.346;2022-07-21T05:20:39;18.80;99.90
24338;DHT22;12457;50.832;4.346;2022-07-21T05:23:05;18.90;99.90
24338;DHT22;12457;50.832;4.346;2022-07-21T05:25:31;18.70;99.90
24338;DHT22;12457;50.832;4.346;2022-07-21T05:27:59;18.60;99.90
24338;DHT22;12457;50.832;4.346;2022-07-21T05:30:24;18.60;99.90
24338;DHT22;12457;50.832;4.346;2022-07-21T05:32:50;18.60;99.90
24338;DHT22;12457;50.832;4.346;2022-07-21T05:35:16;18.50;99.90
24338;DHT22;12457;50.832;4.346;2022-07-21T05:37:42;18.50;99.90
24338;DHT22;12457;50.832;4.346;2022-07-21T05:40:10;18.50;99.90
24338;DHT22;12457;50.832;4.346;2022-07-21T05:42:36;18.50;99.90
24338;DHT22;12457;50.832;4.346;2022-07-21T05:45:13;18.50;99.90
24338;DHT22;12457;50.832;4.346;2022-07-21T05:47:39;18.60;99.90
24338;DHT22;12457;50.832;4.346;2022-07-21T05:50:06;18.60;99.90
24338;DHT22;12457;50.832;4.346;2022-07-21T05:52:33;18.50;99.90
24338;DHT22;12457;50.832;4.346;2022-07-21T05:54:59;18.50;99.90
24338;DHT22;12457;50.832;4.346;2022-07-21T05:57:26;18.60;99.90
24338;DHT22;12457;50.832;4.346;2022-07-21T05:59:51;18.50;99.90
24338;DHT22;12457;50.832;4.346;2022-07-21T06:02:18;18.60;99.90
24338;DHT22;12457;50.832;4.346;2022-07-21T06:04:46;18.60;99.90
24338;DHT22;12457;50.832;4.346;2022-07-21T06:07:11;18.60;99.90
24338;DHT22;12457;50.832;4.346;2022-07-21T06:09:39;18.50;99.90
24338;DHT22;12457;50.832;4.346;2022-07-21T06:12:05;18.50;99.90
24338;DHT22;12457;50.832;4.346;2022-07-21T06:14:31;18.50;99.90
24338;DHT22;12457;50.832;4.346;2022-07-21T06:16:57;18.50;99.90
24338;DHT22;12457;50.832;4.346;2022-07-21T06:19:23;18.60;99.90
24338;DHT22;12457;50.832;4.346;2022-07-21T06:21:49;18.60;99.90
24338;DHT22;12457;50.832;4.346;2022-07-21T06:24:15;18.50;99.90
24338;DHT22;12457;50.832;4.346;2022-07-21T06:26:40;18.50;99.90
24338;DHT22;12457;50.832;4.346;2022-07-21T06:29:07;18.60;99.90
24338;DHT22;12457;50.832;4.346;2022-07-21T06:31:36;18.60;99.90
24338;DHT22;12457;50.832;4.346;2022-07-21T06:34:02;18.60;99.90
24338;DHT22;12457;50.832;4.346;2022-07-21T06:36:27;18.60;99.90
24338;DHT22;12457;50.832;4.346;2022-07-21T06:38:54;18.60;99.90
24338;DHT22;12457;50.832;4.346;2022-07-21T06:41:20;18.70;99.90
24338;DHT22;12457;50.832;4.346;2022-07-21T06:43:48;18.60;99.90
24338;DHT22;12457;50.832;4.346;2022-07-21T06:46:14;18.60;99.90
24338;DHT22;12457;50.832;4.346;2022-07-21T06:48:41;18.70;99.90
24338;DHT22;12457;50.832;4.346;2022-07-21T06:51:07;18.60;99.90
24338;DHT22;12457;50.832;4.346;2022-07-21T06:53:35;18.60;99.90
24338;DHT22;12457;50.832;4.346;2022-07-21T06:56:01;18.60;99.90
24338;DHT22;12457;50.832;4.346;2022-07-21T06:58:27;18.60;99.90
24338;DHT22;12457;50.832;4.346;2022-07-21T07:00:53;18.50;99.90
24338;DHT22;12457;50.832;4.346;2022-07-21T07:03:19;18.50;99.90
24338;DHT22;12457;50.832;4.346;2022-07-21T07:05:47;18.60;99.90
24338;DHT22;12457;50.832;4.346;2022-07-21T07:08:13;18.70;99.90
24338;DHT22;12457;50.832;4.346;2022-07-21T07:10:41;18.70;99.90
24338;DHT22;12457;50.832;4.346;2022-07-21T07:13:07;18.70;99.90
24338;DHT22;12457;50.832;4.346;2022-07-21T07:15:33;18.80;99.90
24338;DHT22;12457;50.832;4.346;2022-07-21T07:17:58;18.80;99.90
24338;DHT22;12457;50.832;4.346;2022-07-21T07:20:24;18.80;99.90
24338;DHT22;12457;50.832;4.346;2022-07-21T07:22:55;18.80;99.90
24338;DHT22;12457;50.832;4.346;2022-07-21T07:25:27;18.90;99.90
24338;DHT22;12457;50.832;4.346;2022-07-21T07:27:52;18.90;99.90
24338;DHT22;12457;50.832;4.346;2022-07-21T07:30:19;19.00;99.90
24338;DHT22;12457;50.832;4.346;2022-07-21T07:32:45;19.10;99.90
24338;DHT22;12457;50.832;4.346;2022-07-21T07:35:13;19.10;99.90
24338;DHT22;12457;50.832;4.346;2022-07-21T07:37:41;19.20;99.90
24338;DHT22;12457;50.832;4.346;2022-07-21T07:40:13;19.20;99.90
24338;DHT22;12457;50.832;4.346;2022-07-21T07:42:40;19.20;99.90
24338;DHT22;12457;50.832;4.346;2022-07-21T07:45:07;19.20;99.90
24338;DHT22;12457;50.832;4.346;2022-07-21T07:47:34;19.20;99.90
24338;DHT22;12457;50.832;4.346;2022-07-21T07:50:03;19.20;99.90
24338;DHT22;12457;50.832;4.346;2022-07-21T07:52:31;19.20;99.90
24338;DHT22;12457;50.832;4.346;2022-07-21T07:55:00;19.20;99.90
24338;DHT22;12457;50.832;4.346;2022-07-21T07:57:29;19.20;99.90
24338;DHT22;12457;50.832;4.346;2022-07-21T07:59:54;19.20;99.90
24338;DHT22;12457;50.832;4.346;2022-07-21T08:02:22;19.20;99.90
24338;DHT22;12457;50.832;4.346;2022-07-21T08:04:47;19.30;99.90
24338;DHT22;12457;50.832;4.346;2022-07-21T08:07:13;19.30;99.90
24338;DHT22;12457;50.832;4.346;2022-07-21T08:09:40;19.30;99.90
24338;DHT22;12457;50.832;4.346;2022-07-21T08:12:06;19.20;99.90
24338;DHT22;12457;50.832;4.346;2022-07-21T08:14:32;19.20;99.90
24338;DHT22;12457;50.832;4.346;2022-07-21T08:17:01;19.20;99.90
24338;DHT22;12457;50.832;4.346;2022-07-21T08:19:26;19.20;99.90
24338;DHT22;12457;50.832;4.346;2022-07-21T08:21:52;19.20;99.90
24338;DHT22;12457;50.832;4.346;2022-07-21T08:24:18;19.20;99.90
24338;DHT22;12457;50.832;4.346;2022-07-21T08:26:47;19.20;99.90
24338;DHT22;12457;50.832;4.346;2022-07-21T08:29:13;19.20;99.90
24338;DHT22;12457;50.832;4.346;2022-07-21T08:31:42;19.30;99.90
24338;DHT22;12457;50.832;4.346;2022-07-21T08:34:10;19.30;99.90
24338;DHT22;12457;50.832;4.346;2022-07-21T08:36:36;19.30;99.90
24338;DHT22;12457;50.832;4.346;2022-07-21T08:39:02;19.30;99.90
24338;DHT22;12457;50.832;4.346;2022-07-21T08:41:28;19.30;99.90
24338;DHT22;12457;50.832;4.346;2022-07-21T08:43:57;19.30;99.90
24338;DHT22;12457;50.832;4.346;2022-07-21T08:46:23;19.40;99.90
24338;DHT22;12457;50.832;4.346;2022-07-21T08:48:50;19.40;99.90
24338;DHT22;12457;50.832;4.346;2022-07-21T08:51:16;19.30;99.90
24338;DHT22;12457;50.832;4.346;2022-07-21T08:53:46;19.40;99.90
24338;DHT22;12457;50.832;4.346;2022-07-21T08:56:12;19.30;99.90
24338;DHT22;12457;50.832;4.346;2022-07-21T08:58:38;19.40;99.90
24338;DHT22;12457;50.832;4.346;2022-07-21T09:01:04;19.30;99.90
24338;DHT22;12457;50.832;4.346;2022-07-21T09:03:30;19.30;99.90
24338;DHT22;12457;50.832;4.346;2022-07-21T09:06:12;19.30;99.90
24338;DHT22;12457;50.832;4.346;2022-07-21T09:08:49;19.30;99.90
24338;DHT22;12457;50.832;4.346;2022-07-21T09:14:18;18.90;99.90
24338;DHT22;12457;50.832;4.346;2022-07-21T09:16:53;18.70;99.90
24338;DHT22;12457;50.832;4.346;2022-07-21T09:19:25;18.70;99.90
24338;DHT22;12457;50.832;4.346;2022-07-21T09:21:55;18.80;99.90
24338;DHT22;12457;50.832;4.346;2022-07-21T09:24:23;18.80;99.90
24338;DHT22;12457;50.832;4.346;2022-07-21T09:27:16;18.90;99.90
24338;DHT22;12457;50.832;4.346;2022-07-21T09:32:15;18.90;99.90
24338;DHT22;12457;50.832;4.346;2022-07-21T09:34:46;19.00;99.90
24338;DHT22;12457;50.832;4.346;2022-07-21T09:37:37;19.00;99.90
24338;DHT22;12457;50.832;4.346;2022-07-21T09:40:08;19.00;99.90
24338;DHT22;12457;50.832;4.346;2022-07-21T09:42:39;18.90;99.90
24338;DHT22;12457;50.832;4.346;2022-07-21T09:45:07;18.80;99.90
24338;DHT22;12457;50.832;4.346;2022-07-21T09:47:33;18.70;99.90
24338;DHT22;12457;50.832;4.346;2022-07-21T09:50:02;18.80;99.90
24338;DHT22;12457;50.832;4.346;2022-07-21T09:52:33;18.70;99.90
24338;DHT22;12457;50.832;4.346;2022-07-21T09:55:05;18.70;99.90
24338;DHT22;12457;50.832;4.346;2022-07-21T09:57:32;18.70;99.90
24338;DHT22;12457;50.832;4.346;2022-07-21T09:59:58;18.70;99.90
24338;DHT22;12457;50.832;4.346;2022-07-21T10:02:28;18.60;99.90
24338;DHT22;12457;50.832;4.346;2022-07-21T10:07:29;18.60;99.90
24338;DHT22;12457;50.832;4.346;2022-07-21T10:09:56;18.60;99.90
24338;DHT22;12457;50.832;4.346;2022-07-21T10:12:23;18.50;99.90
24338;DHT22;12457;50.832;4.346;2022-07-21T10:14:55;18.70;99.90
24338;DHT22;12457;50.832;4.346;2022-07-21T10:17:28;18.80;99.90
24338;DHT22;12457;50.832;4.346;2022-07-21T10:25:17;19.00;99.90
24338;DHT22;12457;50.832;4.346;2022-07-21T10:30:38;19.20;99.90
24338;DHT22;12457;50.832;4.346;2022-07-21T10:33:04;19.30;99.90
24338;DHT22;12457;50.832;4.346;2022-07-21T10:35:31;19.40;99.90
24338;DHT22;12457;50.832;4.346;2022-07-21T10:37:58;19.50;99.90
24338;DHT22;12457;50.832;4.346;2022-07-21T10:45:36;19.30;99.90
24338;DHT22;12457;50.832;4.346;2022-07-21T10:48:04;19.10;99.90
24338;DHT22;12457;50.832;4.346;2022-07-21T10:50:34;18.90;99.90
24338;DHT22;12457;50.832;4.346;2022-07-21T10:53:03;18.90;99.90
24338;DHT22;12457;50.832;4.346;2022-07-21T10:55:35;18.80;99.90
24338;DHT22;12457;50.832;4.346;2022-07-21T11:03:26;18.90;99.90
24338;DHT22;12457;50.832;4.346;2022-07-21T11:08:42;19.60;99.90
24338;DHT22;12457;50.832;4.346;2022-07-21T11:22:12;19.90;99.90
24338;DHT22;12457;50.832;4.346;2022-07-21T11:24:41;19.90;99.90
24338;DHT22;12457;50.832;4.346;2022-07-21T11:27:10;19.90;99.90
24338;DHT22;12457;50.832;4.346;2022-07-21T11:29:38;20.10;99.90
24338;DHT22;12457;50.832;4.346;2022-07-21T11:32:05;20.10;99.90
24338;DHT22;12457;50.832;4.346;2022-07-21T11:35:04;20.30;99.90
24338;DHT22;12457;50.832;4.346;2022-07-21T11:37:35;20.50;99.90
24338;DHT22;12457;50.832;4.346;2022-07-21T11:40:09;20.70;99.90
24338;DHT22;12457;50.832;4.346;2022-07-21T11:42:36;20.70;99.90
24338;DHT22;12457;50.832;4.346;2022-07-21T11:45:03;20.70;99.90
24338;DHT22;12457;50.832;4.346;2022-07-21T11:47:28;20.50;99.90
24338;DHT22;12457;50.832;4.346;2022-07-21T11:49:56;20.30;99.90
24338;DHT22;12457;50.832;4.346;2022-07-21T11:52:40;20.00;99.90
24338;DHT22;12457;50.832;4.346;2022-07-21T11:55:09;19.70;99.90
24338;DHT22;12457;50.832;4.346;2022-07-21T11:57:35;19.50;99.90
24338;DHT22;12457;50.832;4.346;2022-07-21T12:00:02;19.50;99.90
24338;DHT22;12457;50.832;4.346;2022-07-21T12:02:31;19.50;99.90
24338;DHT22;12457;50.832;4.346;2022-07-21T12:05:01;19.60;99.90
24338;DHT22;12457;50.832;4.346;2022-07-21T12:07:53;19.70;99.90
24338;DHT22;12457;50.832;4.346;2022-07-21T12:10:28;19.70;99.90
24338;DHT22;12457;50.832;4.346;2022-07-21T12:13:05;19.60;99.90
24338;DHT22;12457;50.832;4.346;2022-07-21T12:15:35;19.50;99.90
24338;DHT22;12457;50.832;4.346;2022-07-21T12:18:16;19.70;99.90
24338;DHT22;12457;50.832;4.346;2022-07-21T12:20:42;19.80;99.90
24338;DHT22;12457;50.832;4.346;2022-07-21T12:23:26;20.20;99.90
24338;DHT22;12457;50.832;4.346;2022-07-21T12:25:53;20.70;99.90
24338;DHT22;12457;50.832;4.346;2022-07-21T12:28:19;20.90;97.40
24338;DHT22;12457;50.832;4.346;2022-07-21T12:30:48;20.80;98.20
24338;DHT22;12457;50.832;4.346;2022-07-21T12:38:40;20.50;95.90
24338;DHT22;12457;50.832;4.346;2022-07-21T12:41:10;20.20;99.90
24338;DHT22;12457;50.832;4.346;2022-07-21T12:43:37;20.00;98.20
24338;DHT22;12457;50.832;4.346;2022-07-21T12:46:15;19.90;99.10
24338;DHT22;12457;50.832;4.346;2022-07-21T12:48:43;19.80;99.90
24338;DHT22;12457;50.832;4.346;2022-07-21T12:51:15;19.70;99.90
24338;DHT22;12457;50.832;4.346;2022-07-21T12:53:50;19.60;99.90
24338;DHT22;12457;50.832;4.346;2022-07-21T12:56:20;19.60;99.90
24338;DHT22;12457;50.832;4.346;2022-07-21T12:58:47;19.70;99.90
24338;DHT22;12457;50.832;4.346;2022-07-21T13:01:15;19.80;99.90
24338;DHT22;12457;50.832;4.346;2022-07-21T13:03:41;20.00;99.90
24338;DHT22;12457;50.832;4.346;2022-07-21T13:06:08;20.10;99.90
24338;DHT22;12457;50.832;4.346;2022-07-21T13:08:34;20.10;98.00
24338;DHT22;12457;50.832;4.346;2022-07-21T13:11:01;20.20;98.10
24338;DHT22;12457;50.832;4.346;2022-07-21T13:13:27;20.20;97.60
24338;DHT22;12457;50.832;4.346;2022-07-21T13:15:54;20.10;98.80
24338;DHT22;12457;50.832;4.346;2022-07-21T13:18:20;20.30;98.60
24338;DHT22;12457;50.832;4.346;2022-07-21T13:20:47;20.30;98.10
24338;DHT22;12457;50.832;4.346;2022-07-21T13:23:13;20.30;98.10
24338;DHT22;12457;50.832;4.346;2022-07-21T13:25:38;20.40;98.60
24338;DHT22;12457;50.832;4.346;2022-07-21T13:28:04;20.50;97.90
24338;DHT22;12457;50.832;4.346;2022-07-21T13:30:30;20.50;97.50
24338;DHT22;12457;50.832;4.346;2022-07-21T13:32:56;20.50;96.80
24338;DHT22;12457;50.832;4.346;2022-07-21T13:35:25;20.50;96.10
24338;DHT22;12457;50.832;4.346;2022-07-21T13:37:51;20.60;94.70
24338;DHT22;12457;50.832;4.346;2022-07-21T13:40:17;20.40;96.20
24338;DHT22;12457;50.832;4.346;2022-07-21T13:42:43;20.10;98.60
24338;DHT22;12457;50.832;4.346;2022-07-21T13:45:08;20.10;99.20
24338;DHT22;12457;50.832;4.346;2022-07-21T13:47:37;20.10;99.80
24338;DHT22;12457;50.832;4.346;2022-07-21T13:50:03;20.00;99.90
24338;DHT22;12457;50.832;4.346;2022-07-21T13:52:32;20.10;99.90
24338;DHT22;12457;50.832;4.346;2022-07-21T13:54:58;20.30;99.70
24338;DHT22;12457;50.832;4.346;2022-07-21T13:57:23;20.50;96.60
24338;DHT22;12457;50.832;4.346;2022-07-21T13:59:52;20.60;96.40
24338;DHT22;12457;50.832;4.346;2022-07-21T14:02:18;20.40;96.50
24338;DHT22;12457;50.832;4.346;2022-07-21T14:04:44;20.50;96.80
24338;DHT22;12457;50.832;4.346;2022-07-21T14:07:10;20.70;95.60
24338;DHT22;12457;50.832;4.346;2022-07-21T14:09:39;20.90;95.10
24338;DHT22;12457;50.832;4.346;2022-07-21T14:12:05;21.10;92.30
24338;DHT22;12457;50.832;4.346;2022-07-21T14:14:31;20.90;94.60
24338;DHT22;12457;50.832;4.346;2022-07-21T14:16:56;20.80;94.20
24338;DHT22;12457;50.832;4.346;2022-07-21T14:19:23;20.60;94.80
24338;DHT22;12457;50.832;4.346;2022-07-21T14:21:49;20.50;96.70
24338;DHT22;12457;50.832;4.346;2022-07-21T14:24:16;20.50;96.40
24338;DHT22;12457;50.832;4.346;2022-07-21T14:27:02;20.70;97.00
24338;DHT22;12457;50.832;4.346;2022-07-21T14:29:28;21.00;95.40
24338;DHT22;12457;50.832;4.346;2022-07-21T14:31:56;21.20;92.90
24338;DHT22;12457;50.832;4.346;2022-07-21T14:34:21;21.20;90.50
24338;DHT22;12457;50.832;4.346;2022-07-21T14:36:47;21.00;90.90
24338;DHT22;12457;50.832;4.346;2022-07-21T14:39:14;20.70;92.80
24338;DHT22;12457;50.832;4.346;2022-07-21T14:41:40;20.70;93.90
24338;DHT22;12457;50.832;4.346;2022-07-21T14:44:05;20.80;91.20
24338;DHT22;12457;50.832;4.346;2022-07-21T14:46:31;20.80;87.80
24338;DHT22;12457;50.832;4.346;2022-07-21T14:48:57;20.60;92.50
24338;DHT22;12457;50.832;4.346;2022-07-21T14:51:23;20.50;93.20
24338;DHT22;12457;50.832;4.346;2022-07-21T14:53:49;20.60;92.60
24338;DHT22;12457;50.832;4.346;2022-07-21T14:56:15;20.60;93.50
24338;DHT22;12457;50.832;4.346;2022-07-21T14:58:40;20.80;91.80
24338;DHT22;12457;50.832;4.346;2022-07-21T15:01:06;21.00;92.10
24338;DHT22;12457;50.832;4.346;2022-07-21T15:03:32;21.30;87.10
24338;DHT22;12457;50.832;4.346;2022-07-21T15:05:58;21.40;83.60
24338;DHT22;12457;50.832;4.346;2022-07-21T15:08:35;21.60;79.20
24338;DHT22;12457;50.832;4.346;2022-07-21T15:11:01;21.80;78.40
24338;DHT22;12457;50.832;4.346;2022-07-21T15:13:27;21.50;77.20
24338;DHT22;12457;50.832;4.346;2022-07-21T15:15:55;21.30;86.70
24338;DHT22;12457;50.832;4.346;2022-07-21T15:18:21;21.40;82.60
24338;DHT22;12457;50.832;4.346;2022-07-21T15:20:47;21.40;82.80
24338;DHT22;12457;50.832;4.346;2022-07-21T15:23:13;21.60;76.00
24338;DHT22;12457;50.832;4.346;2022-07-21T15:25:41;21.50;80.40
24338;DHT22;12457;50.832;4.346;2022-07-21T15:28:09;21.30;78.40
24338;DHT22;12457;50.832;4.346;2022-07-21T15:30:35;21.00;86.40
24338;DHT22;12457;50.832;4.346;2022-07-21T15:33:01;21.00;85.40
24338;DHT22;12457;50.832;4.346;2022-07-21T15:35:27;20.90;86.50
24338;DHT22;12457;50.832;4.346;2022-07-21T15:37:52;20.90;86.90
24338;DHT22;12457;50.832;4.346;2022-07-21T15:40:18;20.80;88.10
24338;DHT22;12457;50.832;4.346;2022-07-21T15:42:44;20.90;87.40
24338;DHT22;12457;50.832;4.346;2022-07-21T15:45:14;20.90;84.90
24338;DHT22;12457;50.832;4.346;2022-07-21T15:47:40;20.80;85.50
24338;DHT22;12457;50.832;4.346;2022-07-21T15:50:06;20.80;85.00
24338;DHT22;12457;50.832;4.346;2022-07-21T15:52:33;20.90;82.50
24338;DHT22;12457;50.832;4.346;2022-07-21T15:55:06;20.80;84.90
24338;DHT22;12457;50.832;4.346;2022-07-21T15:57:32;20.90;85.60
24338;DHT22;12457;50.832;4.346;2022-07-21T15:59:58;21.00;81.20
24338;DHT22;12457;50.832;4.346;2022-07-21T16:02:25;20.80;83.50
24338;DHT22;12457;50.832;4.346;2022-07-21T16:04:51;20.50;91.40
24338;DHT22;12457;50.832;4.346;2022-07-21T16:07:17;20.40;91.80
24338;DHT22;12457;50.832;4.346;2022-07-21T16:09:43;20.40;87.50
24338;DHT22;12457;50.832;4.346;2022-07-21T16:12:10;20.40;87.30
24338;DHT22;12457;50.832;4.346;2022-07-21T16:14:39;20.20;91.10
24338;DHT22;12457;50.832;4.346;2022-07-21T16:17:04;20.10;91.90